createdAt,value
2019-04-22T00:00:01.057Z,14.45
2019-04-22T00:00:44.508Z,14.35
2019-04-22T00:01:25.786Z,14.4
2019-04-22T00:02:07.059Z,14.35
2019-04-22T00:02:50.257Z,14.37
2019-04-22T00:03:33.803Z,14.45
2019-04-22T00:04:10.751Z,14.35
2019-04-22T00:04:54.412Z,14.36
2019-04-22T00:05:42.650Z,14.36
2019-04-22T00:06:30.512Z,14.3
2019-04-22T00:07:08.278Z,14.32
2019-04-22T00:07:47.756Z,14.36
2019-04-22T00:08:29.357Z,14.22
2019-04-22T00:09:10.565Z,14.23
2019-04-22T00:09:58.009Z,14.29
2019-04-22T00:10:38.873Z,14.26
2019-04-22T00:11:17.909Z,14.32
2019-04-22T00:11:58.739Z,14.22
2019-04-22T00:12:40.289Z,14.3
2019-04-22T00:13:16.869Z,14.29
2019-04-22T00:13:56.529Z,14.3
2019-04-22T00:14:33.618Z,14.29
2019-04-22T00:15:15.083Z,14.29
2019-04-22T00:15:55.864Z,14.26
2019-04-22T00:16:46.748Z,14.26
2019-04-22T00:17:21.839Z,14.29
2019-04-22T00:18:07.246Z,14.3
2019-04-22T00:18:54.084Z,14.28
2019-04-22T00:20:04.173Z,14.29
2019-04-22T00:20:41.851Z,14.23
2019-04-22T00:21:25.343Z,14.26
2019-04-22T00:22:07.497Z,14.22
2019-04-22T00:22:44.211Z,14.2
2019-04-22T00:23:23.065Z,14.18
2019-04-22T00:24:04.251Z,14.15
2019-04-22T00:24:43.434Z,14.18
2019-04-22T00:25:26.075Z,14.22
2019-04-22T00:26:08.538Z,14.14
2019-04-22T00:26:49.818Z,14.12
2019-04-22T00:27:33.434Z,14.11
2019-04-22T00:28:08.046Z,14.1
2019-04-22T00:28:49.508Z,14.08
2019-04-22T00:29:49.105Z,14.12
2019-04-22T00:30:53.563Z,14.05
2019-04-22T00:31:32.584Z,14.08
2019-04-22T00:32:10.988Z,14.04
2019-04-22T00:32:49.072Z,14
2019-04-22T00:33:31.051Z,14.07
2019-04-22T00:34:08.067Z,14.07
2019-04-22T00:34:53.156Z,14.05
2019-04-22T00:35:34.388Z,14.08
2019-04-22T00:36:16.053Z,14.05
2019-04-22T00:36:54.118Z,13.95
2019-04-22T00:37:42.965Z,14
2019-04-22T00:38:58.026Z,14.05
2019-04-22T00:39:40.789Z,14.03
2019-04-22T00:40:19.448Z,13.92
2019-04-22T00:40:58.956Z,13.92
2019-04-22T00:41:42.330Z,13.9
2019-04-22T00:42:20.695Z,13.96
2019-04-22T00:42:57.816Z,13.92
2019-04-22T00:43:47.822Z,14.03
2019-04-22T00:44:25.346Z,13.93
2019-04-22T00:45:05.739Z,13.85
2019-04-22T00:45:42.755Z,13.87
2019-04-22T00:46:24.938Z,13.92
2019-04-22T00:47:07.111Z,13.86
2019-04-22T00:47:43.018Z,13.87
2019-04-22T00:48:26.939Z,13.9
2019-04-22T00:49:52.098Z,13.93
2019-04-22T00:50:29.783Z,13.9
2019-04-22T00:51:12.133Z,13.86
2019-04-22T00:51:56.734Z,13.92
2019-04-22T00:52:27.924Z,13.87
2019-04-22T00:53:16.079Z,13.87
2019-04-22T00:53:54.136Z,13.89
2019-04-22T00:54:34.167Z,13.89
2019-04-22T00:55:17.964Z,13.97
2019-04-22T00:55:53.703Z,13.92
2019-04-22T00:56:32.397Z,13.92
2019-04-22T00:57:15.206Z,13.89
2019-04-22T00:57:54.030Z,13.87
2019-04-22T00:58:36.375Z,14.05
2019-04-22T00:59:16.828Z,13.97
2019-04-22T00:59:57.086Z,13.93
2019-04-22T01:00:37.398Z,13.9
2019-04-22T01:01:18.726Z,13.89
2019-04-22T01:02:00.226Z,13.86
2019-04-22T01:02:41.341Z,13.95
2019-04-22T01:03:25.757Z,13.87
2019-04-22T01:04:03.538Z,13.87
2019-04-22T01:05:33.985Z,13.9
2019-04-22T01:06:02.791Z,13.95
2019-04-22T01:06:38.272Z,13.89
2019-04-22T01:07:23.516Z,13.87
2019-04-22T01:08:05.376Z,13.92
2019-04-22T01:08:52.873Z,13.92
2019-04-22T01:09:23.157Z,13.92
2019-04-22T01:10:11.428Z,13.87
2019-04-22T01:10:51.986Z,13.93
2019-04-22T01:11:28.938Z,13.96
2019-04-22T01:12:13.325Z,13.95
2019-04-22T01:12:49.560Z,13.9
2019-04-22T01:13:30.241Z,13.86
2019-04-22T01:14:06.058Z,13.85
2019-04-22T01:14:47.089Z,13.87
2019-04-22T01:15:33.493Z,13.81
2019-04-22T01:16:10.645Z,13.78
2019-04-22T01:16:53.593Z,13.78
2019-04-22T01:17:32.401Z,13.79
2019-04-22T01:18:09.151Z,13.81
2019-04-22T01:18:53.390Z,13.78
2019-04-22T01:19:38.202Z,13.79
2019-04-22T01:20:29.162Z,13.79
2019-04-22T01:21:05.436Z,13.81
2019-04-22T01:22:15.878Z,13.71
2019-04-22T01:22:58.417Z,13.71
2019-04-22T01:23:34.220Z,13.78
2019-04-22T01:24:15.538Z,13.74
2019-04-22T01:24:55.477Z,13.75
2019-04-22T01:25:36.315Z,13.71
2019-04-22T01:26:09.289Z,13.67
2019-04-22T01:26:53.374Z,13.77
2019-04-22T01:27:34.317Z,13.78
2019-04-22T01:28:14.007Z,13.77
2019-04-22T01:28:49.900Z,13.72
2019-04-22T01:29:30.235Z,13.65
2019-04-22T01:30:09.366Z,13.68
2019-04-22T01:30:48.908Z,13.68
2019-04-22T01:31:25.760Z,13.67
2019-04-22T01:32:03.533Z,13.68
2019-04-22T01:32:47.033Z,13.57
2019-04-22T01:33:31.033Z,13.56
2019-04-22T01:34:15.905Z,13.63
2019-04-22T01:34:56.402Z,13.59
2019-04-22T01:35:35.693Z,13.59
2019-04-22T01:36:24.396Z,13.57
2019-04-22T01:37:02.339Z,13.57
2019-04-22T01:37:44.959Z,13.54
2019-04-22T01:38:23.184Z,13.6
2019-04-22T01:39:08.801Z,13.5
2019-04-22T01:39:56.740Z,13.59
2019-04-22T01:40:38.349Z,13.5
2019-04-22T01:41:14.555Z,13.47
2019-04-22T01:41:59.591Z,13.53
2019-04-22T01:42:39.179Z,13.54
2019-04-22T01:43:16.326Z,13.53
2019-04-22T01:44:05.471Z,13.49
2019-04-22T01:44:38.298Z,13.52
2019-04-22T01:45:17.611Z,13.5
2019-04-22T01:46:00.553Z,13.52
2019-04-22T01:46:43.460Z,13.52
2019-04-22T01:47:24.430Z,13.47
2019-04-22T01:48:02.154Z,13.52
2019-04-22T01:48:39.140Z,13.52
2019-04-22T01:49:21.025Z,13.42
2019-04-22T01:49:58.942Z,13.5
2019-04-22T01:50:36.651Z,13.5
2019-04-22T01:51:28.100Z,13.49
2019-04-22T01:52:04.205Z,13.46
2019-04-22T01:52:45.979Z,13.52
2019-04-22T01:53:26.921Z,13.52
2019-04-22T01:54:11.949Z,13.46
2019-04-22T01:54:46.495Z,13.42
2019-04-22T01:55:30.669Z,13.44
2019-04-22T01:56:05.197Z,13.46
2019-04-22T01:56:46.514Z,13.44
2019-04-22T01:57:28.215Z,13.42
2019-04-22T01:58:05.497Z,13.47
2019-04-22T01:58:43.764Z,13.44
2019-04-22T01:59:19.575Z,13.46
2019-04-22T02:00:00.083Z,13.44
2019-04-22T02:00:53.094Z,13.35
2019-04-22T02:01:36.915Z,13.38
2019-04-22T02:02:09.062Z,13.38
2019-04-22T02:02:57.126Z,13.38
2019-04-22T02:03:39.434Z,13.44
2019-04-22T02:04:17.067Z,13.44
2019-04-22T02:04:59.282Z,13.46
2019-04-22T02:05:33.888Z,13.41
2019-04-22T02:06:13.428Z,13.37
2019-04-22T02:06:55.521Z,13.37
2019-04-22T02:07:33.611Z,13.42
2019-04-22T02:08:23.213Z,13.41
2019-04-22T02:09:00.362Z,13.41
2019-04-22T02:11:00.592Z,13.39
2019-04-22T02:11:45.303Z,13.41
2019-04-22T02:12:19.225Z,13.39
2019-04-22T02:12:59.803Z,13.46
2019-04-22T02:13:42.607Z,13.39
2019-04-22T02:14:26.726Z,13.41
2019-04-22T02:15:05.507Z,13.41
2019-04-22T02:15:47.211Z,13.47
2019-04-22T02:16:27.174Z,13.38
2019-04-22T02:17:08.061Z,13.35
2019-04-22T02:17:54.527Z,13.44
2019-04-22T02:18:31.415Z,13.39
2019-04-22T02:19:11.043Z,13.38
2019-04-22T02:20:03.624Z,13.39
2019-04-22T02:20:30.971Z,13.39
2019-04-22T02:21:07.114Z,13.38
2019-04-22T02:21:48.174Z,13.31
2019-04-22T02:22:41.463Z,13.35
2019-04-22T02:23:30.046Z,13.37
2019-04-22T02:23:53.077Z,13.35
2019-04-22T02:24:33.112Z,13.39
2019-04-22T02:25:15.354Z,13.31
2019-04-22T02:26:00.517Z,13.35
2019-04-22T02:26:35.283Z,13.38
2019-04-22T02:27:17.201Z,13.38
2019-04-22T02:27:54.329Z,13.31
2019-04-22T02:29:14.439Z,13.39
2019-04-22T02:29:51.462Z,13.41
2019-04-22T02:30:49.139Z,13.41
2019-04-22T02:32:58.359Z,13.37
2019-04-22T02:34:13.216Z,13.37
2019-04-22T02:34:45.702Z,13.31
2019-04-22T02:35:33.675Z,13.37
2019-04-22T02:36:16.511Z,13.38
2019-04-22T02:36:40.797Z,13.37
2019-04-22T02:37:22.589Z,13.31
2019-04-22T02:38:18.753Z,13.35
2019-04-22T02:39:23.457Z,13.27
2019-04-22T02:40:08.995Z,13.22
2019-04-22T02:41:06.543Z,13.31
2019-04-22T02:41:30.419Z,13.3
2019-04-22T02:42:10.411Z,13.25
2019-04-22T02:42:51.404Z,13.2
2019-04-22T02:43:43.326Z,13.22
2019-04-22T02:44:52.654Z,13.22
2019-04-22T02:45:36.750Z,13.22
2019-04-22T02:46:32.201Z,13.22
2019-04-22T02:47:26.607Z,13.22
2019-04-22T02:48:33.686Z,13.19
2019-04-22T02:49:00.723Z,13.12
2019-04-22T02:50:15.344Z,13.09
2019-04-22T02:51:01.827Z,13.08
2019-04-22T02:51:32.454Z,13.08
2019-04-22T02:52:59.955Z,13.04
2019-04-22T02:57:02.597Z,13
2019-04-22T02:57:39.082Z,13.01
2019-04-22T02:58:37.064Z,12.95
2019-04-22T02:59:09.384Z,12.98
2019-04-22T02:59:46.383Z,12.97
2019-04-22T03:01:13.222Z,12.98
2019-04-22T03:01:46.786Z,12.91
2019-04-22T03:02:40.697Z,12.91
2019-04-22T03:04:00.195Z,12.91
2019-04-22T03:06:05.061Z,12.86
2019-04-22T03:06:38.170Z,12.83
2019-04-22T03:07:02.943Z,12.85
2019-04-22T03:07:57.725Z,12.83
2019-04-22T03:09:17.831Z,12.83
2019-04-22T03:09:52.477Z,12.82
2019-04-22T03:10:54.502Z,12.83
2019-04-22T03:12:02.129Z,12.83
2019-04-22T03:14:00.506Z,12.82
2019-04-22T03:14:21.743Z,12.86
2019-04-22T03:14:47.688Z,12.82
2019-04-22T03:15:11.387Z,12.79
2019-04-22T03:17:20.309Z,12.79
2019-04-22T03:18:00.414Z,12.73
2019-04-22T03:20:03.803Z,12.72
2019-04-22T03:20:49.865Z,12.72
2019-04-22T03:22:07.659Z,12.75
2019-04-22T03:22:45.514Z,12.76
2019-04-22T03:23:33.865Z,12.7
2019-04-22T03:24:40.265Z,12.58
2019-04-22T03:25:49.315Z,12.68
2019-04-22T03:26:26.789Z,12.58
2019-04-22T03:26:48.176Z,12.57
2019-04-22T03:27:21.698Z,12.61
2019-04-22T03:28:08.234Z,12.57
2019-04-22T03:28:50.673Z,12.62
2019-04-22T03:29:27.860Z,12.61
2019-04-22T03:32:50.948Z,12.67
2019-04-22T03:33:51.210Z,12.53
2019-04-22T03:37:20.229Z,12.53
2019-04-22T03:37:48.454Z,12.49
2019-04-22T03:38:17.742Z,12.47
2019-04-22T03:39:14.819Z,12.47
2019-04-22T03:39:50.273Z,12.5
2019-04-22T03:40:52.424Z,12.45
2019-04-22T03:41:56.967Z,12.36
2019-04-22T03:42:20.782Z,12.45
2019-04-22T03:43:53.766Z,12.39
2019-04-22T03:44:38.174Z,12.4
2019-04-22T03:45:08.718Z,12.39
2019-04-22T03:45:50.985Z,12.42
2019-04-22T03:46:29.815Z,12.39
2019-04-22T03:47:15.824Z,12.36
2019-04-22T03:47:50.710Z,12.37
2019-04-22T03:48:25.453Z,12.35
2019-04-22T03:49:17.171Z,12.4
2019-04-22T03:49:54.087Z,12.35
2019-04-22T03:51:15.896Z,12.35
2019-04-22T03:54:02.238Z,12.4
2019-04-22T03:54:38.949Z,12.36
2019-04-22T03:55:50.826Z,12.28
2019-04-22T03:57:06.730Z,12.31
2019-04-22T03:57:51.748Z,12.35
2019-04-22T03:58:36.574Z,12.35
2019-04-22T03:59:26.426Z,12.32
2019-04-22T03:59:56.433Z,12.35
2019-04-22T04:01:29.362Z,12.29
2019-04-22T04:04:08.716Z,12.36
2019-04-22T04:04:36.652Z,12.32
2019-04-22T04:05:32.967Z,12.24
2019-04-22T04:05:58.733Z,12.22
2019-04-22T04:06:58.966Z,12.22
2019-04-22T04:07:39.789Z,12.24
2019-04-22T04:08:19.473Z,12.25
2019-04-22T04:08:50.831Z,12.21
2019-04-22T04:09:38.282Z,12.27
2019-04-22T04:10:10.001Z,12.27
2019-04-22T04:11:31.829Z,12.24
2019-04-22T04:12:12.087Z,12.25
2019-04-22T04:12:55.956Z,12.21
2019-04-22T04:13:22.746Z,12.29
2019-04-22T04:14:17.894Z,12.32
2019-04-22T04:14:53.351Z,12.35
2019-04-22T04:15:33.843Z,12.35
2019-04-22T04:16:10.090Z,12.32
2019-04-22T04:16:55.991Z,12.32
2019-04-22T04:18:08.946Z,12.36
2019-04-22T04:20:20.702Z,12.35
2019-04-22T04:22:29.918Z,12.36
2019-04-22T04:23:45.642Z,12.31
2019-04-22T04:24:31.653Z,12.31
2019-04-22T04:26:26.152Z,12.36
2019-04-22T04:27:18.000Z,12.35
2019-04-22T04:29:13.107Z,12.39
2019-04-22T04:29:54.094Z,12.39
2019-04-22T04:30:29.364Z,12.37
2019-04-22T04:31:08.923Z,12.4
2019-04-22T04:32:33.878Z,12.32
2019-04-22T04:33:04.574Z,12.4
2019-04-22T04:33:46.319Z,12.37
2019-04-22T04:34:42.738Z,12.35
2019-04-22T04:35:21.030Z,12.37
2019-04-22T04:35:52.419Z,12.36
2019-04-22T04:37:51.151Z,12.46
2019-04-22T04:38:36.105Z,12.37
2019-04-22T04:41:15.091Z,12.39
2019-04-22T04:42:04.528Z,12.42
2019-04-22T04:42:38.328Z,12.37
2019-04-22T04:43:15.395Z,12.39
2019-04-22T04:44:57.634Z,12.37
2019-04-22T04:45:31.544Z,12.36
2019-04-22T04:46:05.885Z,12.37
2019-04-22T04:46:44.243Z,12.43
2019-04-22T04:47:54.266Z,12.36
2019-04-22T04:48:59.866Z,12.36
2019-04-22T04:49:23.488Z,12.39
2019-04-22T04:50:11.732Z,12.35
2019-04-22T04:50:46.795Z,12.39
2019-04-22T04:52:06.151Z,12.27
2019-04-22T04:53:31.453Z,12.35
2019-04-22T04:54:12.145Z,12.28
2019-04-22T04:54:47.425Z,12.24
2019-04-22T04:56:10.485Z,12.28
2019-04-22T04:56:55.754Z,12.17
2019-04-22T04:57:33.346Z,12.13
2019-04-22T05:02:19.505Z,12.15
2019-04-22T05:02:52.041Z,12.12
2019-04-22T05:03:38.946Z,12.04
2019-04-22T05:05:31.234Z,12.1
2019-04-22T05:06:32.884Z,11.99
2019-04-22T05:08:27.186Z,12.13
2019-04-22T05:09:10.730Z,11.99
2019-04-22T05:09:51.376Z,12.09
2019-04-22T05:10:55.969Z,11.95
2019-04-22T05:11:51.730Z,12.02
2019-04-22T05:13:48.569Z,12.03
2019-04-22T05:14:17.013Z,11.97
2019-04-22T05:15:03.503Z,12.02
2019-04-22T05:15:42.635Z,12.04
2019-04-22T05:17:01.967Z,12
2019-04-22T05:17:43.045Z,11.95
2019-04-22T05:18:18.518Z,11.99
2019-04-22T05:19:35.536Z,11.99
2019-04-22T05:21:11.981Z,12
2019-04-22T05:21:46.765Z,12.06
2019-04-22T05:22:27.806Z,11.99
2019-04-22T05:23:05.574Z,11.99
2019-04-22T05:23:43.665Z,12.09
2019-04-22T05:25:40.168Z,12.03
2019-04-22T05:27:12.757Z,12
2019-04-22T05:27:44.905Z,11.94
2019-04-22T05:29:09.461Z,11.91
2019-04-22T05:30:45.545Z,11.9
2019-04-22T05:31:13.830Z,11.91
2019-04-22T05:32:42.871Z,11.95
2019-04-22T05:33:06.877Z,12
2019-04-22T05:33:56.078Z,11.99
2019-04-22T05:34:33.271Z,11.9
2019-04-22T05:35:13.926Z,12.04
2019-04-22T05:35:53.199Z,12.1
2019-04-22T05:36:32.594Z,12.06
2019-04-22T05:37:14.104Z,12
2019-04-22T05:37:56.140Z,11.95
2019-04-22T05:38:39.697Z,12.09
2019-04-22T05:39:15.406Z,12.02
2019-04-22T05:39:56.002Z,12.02
2019-04-22T05:40:49.478Z,11.97
2019-04-22T05:41:15.756Z,12.12
2019-04-22T05:42:02.944Z,11.99
2019-04-22T05:42:33.987Z,12
2019-04-22T05:43:20.937Z,11.97
2019-04-22T05:44:02.627Z,11.99
2019-04-22T05:44:40.717Z,12.06
2019-04-22T05:45:18.947Z,12
2019-04-22T05:46:02.368Z,12
2019-04-22T05:46:39.057Z,12
2019-04-22T05:47:19.273Z,11.99
2019-04-22T05:48:00.763Z,11.99
2019-04-22T05:48:43.731Z,12
2019-04-22T05:49:23.327Z,11.95
2019-04-22T05:50:01.896Z,11.97
2019-04-22T05:50:44.962Z,11.99
2019-04-22T05:51:30.930Z,12.02
2019-04-22T05:52:09.472Z,12.09
2019-04-22T05:52:46.369Z,12.12
2019-04-22T05:53:25.239Z,12.17
2019-04-22T05:54:07.340Z,12.1
2019-04-22T05:54:38.351Z,12.18
2019-04-22T05:55:35.636Z,12.12
2019-04-22T05:56:20.534Z,12.04
2019-04-22T05:56:42.686Z,12
2019-04-22T05:57:30.886Z,12.1
2019-04-22T05:58:14.014Z,11.94
2019-04-22T05:58:58.079Z,12
2019-04-22T05:59:37.332Z,12.02
2019-04-22T06:00:21.585Z,12.02
2019-04-22T06:01:18.322Z,11.99
2019-04-22T06:01:42.940Z,11.97
2019-04-22T06:02:23.211Z,12
2019-04-22T06:03:37.476Z,11.97
2019-04-22T06:04:13.423Z,12.04
2019-04-22T06:05:41.498Z,11.99
2019-04-22T06:06:17.715Z,11.94
2019-04-22T06:06:59.638Z,12.15
2019-04-22T06:07:38.324Z,12.06
2019-04-22T06:08:28.943Z,12.13
2019-04-22T06:09:03.794Z,12.2
2019-04-22T06:09:38.614Z,12.17
2019-04-22T06:10:32.522Z,12.15
2019-04-22T06:11:07.957Z,12.22
2019-04-22T06:11:35.816Z,12.22
2019-04-22T06:12:20.698Z,12.22
2019-04-22T06:13:00.620Z,12.36
2019-04-22T06:13:38.278Z,12.36
2019-04-22T06:14:24.482Z,12.36
2019-04-22T06:15:03.274Z,12.47
2019-04-22T06:15:42.453Z,12.47
2019-04-22T06:16:30.490Z,12.5
2019-04-22T06:17:10.155Z,12.54
2019-04-22T06:17:54.573Z,12.67
2019-04-22T06:19:13.340Z,12.73
2019-04-22T06:19:50.311Z,12.85
2019-04-22T06:20:32.025Z,12.87
2019-04-22T06:21:10.978Z,12.93
2019-04-22T06:21:47.891Z,13.03
2019-04-22T06:22:56.584Z,13.05
2019-04-22T06:23:17.214Z,13.18
2019-04-22T06:24:30.699Z,13.39
2019-04-22T06:25:19.673Z,13.39
2019-04-22T06:26:09.521Z,13.53
2019-04-22T06:27:20.682Z,13.75
2019-04-22T06:28:01.729Z,13.89
2019-04-22T06:28:40.412Z,14.03
2019-04-22T06:29:19.072Z,14.04
2019-04-22T06:29:53.132Z,14.18
2019-04-22T06:30:41.240Z,14.35
2019-04-22T06:31:24.071Z,14.44
2019-04-22T06:32:22.893Z,14.5
2019-04-22T06:32:39.351Z,14.66
2019-04-22T06:33:25.898Z,14.78
2019-04-22T06:34:10.148Z,14.91
2019-04-22T06:34:41.631Z,15.14
2019-04-22T06:35:29.421Z,15.27
2019-04-22T06:36:50.719Z,15.52
2019-04-22T06:37:33.504Z,15.58
2019-04-22T06:38:44.702Z,15.79
2019-04-22T06:40:12.866Z,15.73
2019-04-22T06:40:53.862Z,15.77
2019-04-22T06:41:27.110Z,15.91
2019-04-22T06:42:13.168Z,15.98
2019-04-22T06:42:57.411Z,15.95
2019-04-22T06:43:34.774Z,15.95
2019-04-22T06:44:51.410Z,16
2019-04-22T06:45:33.608Z,16.01
2019-04-22T06:46:14.255Z,16.09
2019-04-22T06:46:51.786Z,16.08
2019-04-22T06:48:18.768Z,16.17
2019-04-22T06:48:54.249Z,16.17
2019-04-22T06:49:34.818Z,16.29
2019-04-22T06:50:30.084Z,16.35
2019-04-22T06:51:10.978Z,16.42
2019-04-22T06:51:36.883Z,16.58
2019-04-22T06:52:17.586Z,16.57
2019-04-22T06:53:01.425Z,16.58
2019-04-22T06:53:40.328Z,16.68
2019-04-22T06:54:21.292Z,16.81
2019-04-22T06:55:07.382Z,16.86
2019-04-22T06:55:40.945Z,16.91
2019-04-22T06:56:15.420Z,16.89
2019-04-22T06:56:59.088Z,16.97
2019-04-22T06:57:43.075Z,17.06
2019-04-22T06:58:19.475Z,17.04
2019-04-22T06:59:06.472Z,17.01
2019-04-22T06:59:42.412Z,17.15
2019-04-22T07:01:09.066Z,17.16
2019-04-22T07:01:48.480Z,17.23
2019-04-22T07:02:31.815Z,17.34
2019-04-22T07:03:28.320Z,17.31
2019-04-22T07:04:26.793Z,17.48
2019-04-22T07:05:07.269Z,17.46
2019-04-22T07:05:51.377Z,17.59
2019-04-22T07:06:41.413Z,17.6
2019-04-22T07:07:12.053Z,17.67
2019-04-22T07:07:53.174Z,17.78
2019-04-22T07:09:53.016Z,17.82
2019-04-22T07:11:10.749Z,17.94
2019-04-22T07:11:57.367Z,17.94
2019-04-22T07:12:34.234Z,17.98
2019-04-22T07:13:23.122Z,18.16
2019-04-22T07:14:00.832Z,18.11
2019-04-22T07:14:34.958Z,18.33
2019-04-22T07:15:35.065Z,18.35
2019-04-22T07:17:20.424Z,18.44
2019-04-22T07:18:02.680Z,18.44
2019-04-22T07:18:42.811Z,18.47
2019-04-22T07:19:33.144Z,18.43
2019-04-22T07:20:03.544Z,18.47
2019-04-22T07:20:44.003Z,18.47
2019-04-22T07:21:25.552Z,18.47
2019-04-22T07:22:02.855Z,18.5
2019-04-22T07:22:44.819Z,18.56
2019-04-22T07:24:19.874Z,18.59
2019-04-22T07:24:53.637Z,18.62
2019-04-22T07:25:28.923Z,18.56
2019-04-22T07:26:07.270Z,18.56
2019-04-22T07:26:50.577Z,18.55
2019-04-22T07:27:27.039Z,18.63
2019-04-22T07:28:19.836Z,18.63
2019-04-22T07:28:48.719Z,18.66
2019-04-22T07:29:32.123Z,18.68
2019-04-22T07:30:14.566Z,18.62
2019-04-22T07:30:52.659Z,18.62
2019-04-22T07:31:33.905Z,18.58
2019-04-22T07:32:12.823Z,18.56
2019-04-22T07:33:37.339Z,18.73
2019-04-22T07:34:19.036Z,18.78
2019-04-22T07:34:58.083Z,18.81
2019-04-22T07:35:45.782Z,18.83
2019-04-22T07:36:35.214Z,18.89
2019-04-22T07:37:41.424Z,18.99
2019-04-22T07:38:23.622Z,19.14
2019-04-22T07:38:56.303Z,19.33
2019-04-22T07:39:39.063Z,19.44
2019-04-22T07:40:16.397Z,19.41
2019-04-22T07:40:59.109Z,19.55
2019-04-22T07:41:55.763Z,19.54
2019-04-22T07:42:24.299Z,19.67
2019-04-22T07:43:04.126Z,19.81
2019-04-22T07:43:57.719Z,19.76
2019-04-22T07:44:23.962Z,19.67
2019-04-22T07:45:03.349Z,19.76
2019-04-22T07:45:53.110Z,19.76
2019-04-22T07:46:25.809Z,19.59
2019-04-22T07:47:13.292Z,19.67
2019-04-22T07:48:32.840Z,19.56
2019-04-22T07:49:10.335Z,19.55
2019-04-22T07:49:50.621Z,19.51
2019-04-22T07:50:42.597Z,19.33
2019-04-22T07:51:49.321Z,19.3
2019-04-22T07:53:09.875Z,19.3
2019-04-22T07:53:47.099Z,19.24
2019-04-22T07:54:31.403Z,19.04
2019-04-22T07:55:05.362Z,18.98
2019-04-22T07:55:51.665Z,18.92
2019-04-22T07:56:36.177Z,18.88
2019-04-22T07:57:19.549Z,18.81
2019-04-22T07:57:58.088Z,18.73
2019-04-22T07:58:35.328Z,18.7
2019-04-22T07:59:15.020Z,18.59
2019-04-22T08:00:02.722Z,18.58
2019-04-22T08:00:38.413Z,18.6
2019-04-22T08:01:20.044Z,18.55
2019-04-22T08:01:55.615Z,18.55
2019-04-22T08:02:43.500Z,18.56
2019-04-22T08:03:43.714Z,18.6
2019-04-22T08:04:53.598Z,18.68
2019-04-22T08:05:24.350Z,18.73
2019-04-22T08:06:11.500Z,18.81
2019-04-22T08:06:45.849Z,18.78
2019-04-22T08:07:23.630Z,18.83
2019-04-22T08:08:06.822Z,18.8
2019-04-22T08:08:43.509Z,18.95
2019-04-22T08:09:26.486Z,18.88
2019-04-22T08:10:48.142Z,18.96
2019-04-22T08:12:01.785Z,19.08
2019-04-22T08:12:33.057Z,19.07
2019-04-22T08:12:50.451Z,19.09
2019-04-22T08:13:30.230Z,19.14
2019-04-22T08:14:14.043Z,19.27
2019-04-22T08:14:51.911Z,19.14
2019-04-22T08:15:32.205Z,19.18
2019-04-22T08:16:09.629Z,19.16
2019-04-22T08:16:56.160Z,19.16
2019-04-22T08:17:51.733Z,19.16
2019-04-22T08:18:21.690Z,19.18
2019-04-22T08:18:53.868Z,19.12
2019-04-22T08:19:34.891Z,19.14
2019-04-22T08:20:15.442Z,19.15
2019-04-22T08:20:53.903Z,18.99
2019-04-22T08:21:38.041Z,19.04
2019-04-22T08:22:13.862Z,19.04
2019-04-22T08:23:04.052Z,19.04
2019-04-22T08:24:22.067Z,19.04
2019-04-22T08:25:00.121Z,19
2019-04-22T08:25:38.665Z,19.02
2019-04-22T08:26:19.134Z,19.04
2019-04-22T08:26:57.792Z,19.19
2019-04-22T08:27:42.617Z,19.09
2019-04-22T08:28:25.191Z,19.15
2019-04-22T08:29:05.474Z,19.15
2019-04-22T08:29:51.832Z,19.18
2019-04-22T08:30:27.542Z,19.15
2019-04-22T08:31:07.479Z,19.12
2019-04-22T08:31:48.411Z,19.19
2019-04-22T08:32:27.811Z,19.12
2019-04-22T08:33:09.196Z,19.22
2019-04-22T08:33:46.329Z,19.18
2019-04-22T08:34:24.439Z,19.21
2019-04-22T08:35:12.831Z,19.14
2019-04-22T08:36:05.951Z,19.09
2019-04-22T08:36:31.381Z,19.02
2019-04-22T08:37:50.611Z,19.08
2019-04-22T08:38:35.275Z,19.02
2019-04-22T08:39:13.405Z,19.04
2019-04-22T08:39:46.874Z,19.02
2019-04-22T08:40:35.975Z,19.07
2019-04-22T08:41:22.582Z,19.04
2019-04-22T08:41:42.923Z,19.04
2019-04-22T08:42:42.729Z,19.09
2019-04-22T08:43:20.007Z,19.04
2019-04-22T08:44:00.545Z,19.14
2019-04-22T08:44:56.573Z,19.18
2019-04-22T08:45:14.091Z,19.16
2019-04-22T08:45:56.057Z,19.16
2019-04-22T08:46:55.950Z,19.16
2019-04-22T08:47:54.623Z,19.16
2019-04-22T08:48:35.970Z,19.12
2019-04-22T08:49:15.868Z,19.12
2019-04-22T08:50:07.510Z,19.11
2019-04-22T08:50:44.054Z,19.04
2019-04-22T08:52:00.812Z,19.08
2019-04-22T08:52:40.435Z,19.02
2019-04-22T08:53:23.282Z,19.09
2019-04-22T08:54:43.439Z,19
2019-04-22T08:55:24.206Z,19.04
2019-04-22T08:56:14.136Z,18.89
2019-04-22T08:56:44.844Z,18.88
2019-04-22T08:57:34.384Z,18.74
2019-04-22T08:58:49.956Z,18.75
2019-04-22T08:59:36.468Z,18.68
2019-04-22T09:00:06.426Z,18.73
2019-04-22T09:01:03.996Z,18.77
2019-04-22T09:01:26.658Z,18.81
2019-04-22T09:02:11.553Z,18.78
2019-04-22T09:02:53.593Z,18.8
2019-04-22T09:03:30.188Z,18.77
2019-04-22T09:04:05.566Z,18.81
2019-04-22T09:05:55.172Z,18.7
2019-04-22T09:06:19.592Z,18.73
2019-04-22T09:07:07.021Z,18.8
2019-04-22T09:07:36.061Z,18.78
2019-04-22T09:08:18.503Z,18.83
2019-04-22T09:09:00.674Z,18.77
2019-04-22T09:09:37.706Z,18.75
2019-04-22T09:10:16.948Z,18.8
2019-04-22T09:10:56.919Z,18.73
2019-04-22T09:11:41.300Z,18.78
2019-04-22T09:12:23.352Z,18.7
2019-04-22T09:13:00.452Z,18.7
2019-04-22T09:13:42.911Z,18.7
2019-04-22T09:14:24.018Z,18.74
2019-04-22T09:15:18.165Z,18.77
2019-04-22T09:15:41.561Z,18.62
2019-04-22T09:16:26.146Z,18.63
2019-04-22T09:17:03.612Z,18.65
2019-04-22T09:17:47.043Z,18.68
2019-04-22T09:18:28.083Z,18.53
2019-04-22T09:19:05.330Z,18.58
2019-04-22T09:19:47.232Z,18.59
2019-04-22T09:20:25.734Z,18.58
2019-04-22T09:21:12.941Z,18.58
2019-04-22T09:22:04.304Z,18.55
2019-04-22T09:22:26.052Z,18.5
2019-04-22T09:23:14.634Z,18.52
2019-04-22T09:23:52.081Z,18.5
2019-04-22T09:24:29.022Z,18.44
2019-04-22T09:25:05.452Z,18.35
2019-04-22T09:25:48.333Z,18.52
2019-04-22T09:26:35.871Z,18.55
2019-04-22T09:27:17.725Z,18.63
2019-04-22T09:27:49.388Z,18.68
2019-04-22T09:28:37.496Z,18.75
2019-04-22T09:29:20.574Z,18.75
2019-04-22T09:29:58.019Z,18.78
2019-04-22T09:31:28.551Z,18.73
2019-04-22T09:32:00.141Z,18.83
2019-04-22T09:32:37.623Z,18.74
2019-04-22T09:33:20.241Z,18.77
2019-04-22T09:33:52.740Z,18.63
2019-04-22T09:34:39.587Z,18.7
2019-04-22T09:35:15.431Z,18.73
2019-04-22T09:36:08.784Z,18.7
2019-04-22T09:36:40.512Z,18.77
2019-04-22T09:37:26.657Z,18.75
2019-04-22T09:38:10.388Z,18.7
2019-04-22T09:38:40.878Z,18.68
2019-04-22T09:39:20.900Z,18.63
2019-04-22T09:41:26.945Z,18.68
2019-04-22T09:42:04.571Z,18.75
2019-04-22T09:43:31.419Z,18.7
2019-04-22T09:44:01.955Z,18.71
2019-04-22T09:44:47.010Z,18.71
2019-04-22T09:45:42.599Z,18.68
2019-04-22T09:46:05.990Z,18.63
2019-04-22T09:46:46.632Z,18.6
2019-04-22T09:47:33.443Z,18.6
2019-04-22T09:48:49.996Z,18.58
2019-04-22T09:49:36.367Z,18.59
2019-04-22T09:50:14.873Z,18.58
2019-04-22T09:50:51.743Z,18.62
2019-04-22T09:51:30.553Z,18.66
2019-04-22T09:52:53.008Z,18.75
2019-04-22T09:53:35.904Z,18.77
2019-04-22T09:54:21.480Z,18.75
2019-04-22T09:54:59.382Z,18.83
2019-04-22T09:55:33.984Z,18.77
2019-04-22T09:56:17.223Z,18.8
2019-04-22T09:56:54.853Z,18.71
2019-04-22T09:57:37.350Z,18.65
2019-04-22T09:58:15.820Z,18.66
2019-04-22T09:59:12.843Z,18.68
2019-04-22T09:59:42.914Z,18.65
2019-04-22T10:00:19.462Z,18.56
2019-04-22T10:01:02.456Z,18.58
2019-04-22T10:01:40.754Z,18.68
2019-04-22T10:02:24.805Z,18.65
2019-04-22T10:03:06.696Z,18.55
2019-04-22T10:03:44.159Z,18.62
2019-04-22T10:04:17.833Z,18.62
2019-04-22T10:05:07.384Z,18.62
2019-04-22T10:05:49.656Z,18.55
2019-04-22T10:07:09.714Z,18.47
2019-04-22T10:07:44.485Z,18.53
2019-04-22T10:08:31.449Z,18.52
2019-04-22T10:09:59.055Z,18.59
2019-04-22T10:10:26.636Z,18.58
2019-04-22T10:11:12.528Z,18.58
2019-04-22T10:11:50.475Z,18.49
2019-04-22T10:13:18.304Z,18.47
2019-04-22T10:13:53.404Z,18.43
2019-04-22T10:14:30.582Z,18.47
2019-04-22T10:15:13.211Z,18.44
2019-04-22T10:15:54.217Z,18.43
2019-04-22T10:16:36.912Z,18.41
2019-04-22T10:17:12.177Z,18.49
2019-04-22T10:17:56.283Z,18.41
2019-04-22T10:18:38.552Z,18.44
2019-04-22T10:19:16.552Z,18.41
2019-04-22T10:20:05.263Z,18.26